Selkirk, NY (12158)

8:52 AM EDT on March 31, 2015 (GMT -0400)
Elm Estates | | Change Station
CLOSE
Current Station
Personal Weather Station
Location: Selkirk, NY
Elevation: 213 ft
Nearby Weather Stations

Elev 213 ft 42.59 °N, 73.84 °W | Updated 50 seconds ago

Mostly Cloudy
Mostly Cloudy
39.0 °F
Feels Like 39 °F
N
0.0
Wind Variable Wind from NNE
Gusts 0.0 mph

Today
High -- | Low -- °F
--% Chance of Precip.
Yesterday
High -- | Low -- °F
Precip. -- in
6:39 AM 7:19 PM
Waxing Gibbous, 86% visible
Pressure 29.83 in
Visibility 10.0 miles
Clouds Scattered Clouds 2800 ft
Mostly Cloudy 5500 ft
Windchill 39 °F
Dew Point 25 °F
Humidity 56%
Rainfall 0.00 in
Snow Depth Not available.
UV 1.0 out of 12
Pollen 4.90 out of 12
Air Quality Not available.
Flu Activity Not available.
METAR KALB 311151Z 29012KT 10SM SCT028 BKN055 03/M03 A2982 RMK AO2 SLP100 T00281033 10039 20017 53010

More Conditions Fewer Conditions

Pressure 29.83 in
Visibility 10.0 miles
Clouds Scattered Clouds 2800 ft
Mostly Cloudy 5500 ft
Windchill 39 °F
Dew Point 25 °F
Humidity 56%
Rainfall 0.00 in
Snow Depth Not available.
UV 1.0 out of 12
Pollen 4.90 out of 12
Air Quality Not available.
Flu Activity Not available.
METAR KALB 311151Z 29012KT 10SM SCT028 BKN055 03/M03 A2982 RMK AO2 SLP100 T00281033 10039 20017 53010

More Conditions Fewer Conditions

10-Day Weather Forecast

Almanac

Astronomy

Mar. 31, 2015 Rise Set
Actual Time
Civil Twilight
Nautical Twilight
Astronomical Twilight
Moon
Length of Visible Light
Length of Day
Tomorrow will be .
, % of the Moon is Illuminated

Today's Extremes

State Highs State Lows

Community

WunderPhotos

Upload Photos

1,809,754 photos uploaded!

WunderBlogs® & News

Nearby

Air Quality

  Air Quality AQ Index Pollutant
Not available.

Snow Depth

Station Depth Elevation

Earthquake Activity

City Distance Mag. Time & Date
Minimum magnitude displayed is 2.5.

Coastal Water Temperatures

Place Temperature

Stations

Nearby Weather Stations

Station Location Temp. Windchill Dew Point Humidity Wind Precip. Elev Updated Type